Hauptseite
METAR-TAF:

METAR-TAF

Flughäfen :

Flughafen Almería

Almería, Spanien

Breite: 36-51N, Länge: 002-23W, Höhe: 15 m

Beobachtung

Neuester Wetterbericht von vor 24 Minuten, um 07:00 UTC
Wind 2 kt aus unterschiedlichen Richtungen
Temperatur 11°C
Luftfeuchtigkeit 82%
Luftdruck 1020 hPa
Sichtweite 10 km oder mehr
Aufgelockert bewölkt in der Höhe von 5000 ft
Durchbrochene Bewölkung in der Höhe von 7000 ft

METAR: LEAM 240700Z VRB02KT 9999 SCT050 BKN070 11/08 Q1020

Zeit: 08:24 (07:24 UTC)

Prognose

Neuester Wetterbericht von vor 5 Stunden und 24 Minuten, um 02:00 UTC
Gültige Prognose vom 24 um 03 UTC bis 25 um 03 UTC
Wind 8 kt aus Nord
Sichtweite 10 km oder mehr
Leicht bewölkt in der Höhe von 4000 ft
Wahrscheinlichkeit 40% :
Zeitweise
vom 24 um 11 UTC bis 24 um 20 UTC
Wind 10 kt aus Süd

TAF: LEAM 240200Z 2403/2503 35008KT 9999 FEW040 TX17/2415Z TN09/2406Z PROB40 TEMPO 2411/2420 19010KT

Wetterbeobachtungen und Prognosen von mehr als 4000 Flughäfen (METAR und TAF Bericht).

Die verfügbaren Stationen werden durch gelbe und rote Markierungen auf der Karte dargestellt.

Führen Sie die Maus auf sie, um den Namen der Station zu sehen.

Darauf klicken, um die Beobachtung von Wetterbeobachtungen und Prognosen zu sehen.

Um die Karte zu ändern : klicken Sie auf den grünen Tasten mit einem schwarzen Kreuz Zum Vergrößern, auf den grünen Button mit einem Gedankenstrich zu verkleinern, oder auf die grünen Pfeile für benachbarte Karten.


METAR-TAF: